sensor_id;sensor_type;location;lat;lon;timestamp;pressure;altitude;pressure_sealevel;temperature;humidity
8627;BME280;4351;51.422;6.794;2022-07-01T00:02:16;101690.00;;;15.50;42.46
8627;BME280;4351;51.422;6.794;2022-07-01T00:04:46;101722.56;;;15.65;42.25
8627;BME280;4351;51.422;6.794;2022-07-01T00:07:33;101737.78;;;15.55;42.24
8627;BME280;4351;51.422;6.794;2022-07-01T00:10:01;101742.16;;;15.43;42.20
8627;BME280;4351;51.422;6.794;2022-07-01T00:12:29;101740.13;;;15.46;42.16
8627;BME280;4351;51.422;6.794;2022-07-01T00:14:57;101750.00;;;15.47;42.14
8627;BME280;4351;51.422;6.794;2022-07-01T00:17:25;101785.25;;;15.49;42.19
8627;BME280;4351;51.422;6.794;2022-07-01T00:19:55;101799.03;;;15.60;42.14
8627;BME280;4351;51.422;6.794;2022-07-01T00:22:23;101797.78;;;15.51;42.19
8627;BME280;4351;51.422;6.794;2022-07-01T00:24:52;101794.09;;;15.52;42.18
8627;BME280;4351;51.422;6.794;2022-07-01T00:27:20;101783.72;;;15.45;42.27
8627;BME280;4351;51.422;6.794;2022-07-01T00:29:48;101771.66;;;15.49;42.32
8627;BME280;4351;51.422;6.794;2022-07-01T00:32:16;101754.22;;;15.38;42.52
8627;BME280;4351;51.422;6.794;2022-07-01T00:34:44;101743.16;;;15.42;42.60
8627;BME280;4351;51.422;6.794;2022-07-01T00:37:14;101733.63;;;15.34;42.74
8627;BME280;4351;51.422;6.794;2022-07-01T00:39:42;101724.22;;;15.40;42.86
8627;BME280;4351;51.422;6.794;2022-07-01T00:42:10;101704.00;;;15.44;43.08
8627;BME280;4351;51.422;6.794;2022-07-01T00:44:38;101671.72;;;15.25;43.52
8627;BME280;4351;51.422;6.794;2022-07-01T00:47:10;101657.41;;;15.36;43.73
8627;BME280;4351;51.422;6.794;2022-07-01T00:49:39;101660.91;;;15.38;43.97
8627;BME280;4351;51.422;6.794;2022-07-01T00:52:09;101651.59;;;15.42;44.33
8627;BME280;4351;51.422;6.794;2022-07-01T00:54:40;101624.06;;;15.47;44.55
8627;BME280;4351;51.422;6.794;2022-07-01T00:57:09;101599.72;;;15.45;45.32
8627;BME280;4351;51.422;6.794;2022-07-01T00:59:41;101569.56;;;15.35;46.18
8627;BME280;4351;51.422;6.794;2022-07-01T01:02:09;101569.47;;;15.37;46.88
8627;BME280;4351;51.422;6.794;2022-07-01T01:04:38;101546.81;;;15.23;48.08
8627;BME280;4351;51.422;6.794;2022-07-01T01:07:07;101536.97;;;15.48;48.14
8627;BME280;4351;51.422;6.794;2022-07-01T01:09:35;101530.22;;;15.41;49.16
8627;BME280;4351;51.422;6.794;2022-07-01T01:12:05;101518.25;;;15.44;49.84
8627;BME280;4351;51.422;6.794;2022-07-01T01:14:43;101497.59;;;15.41;51.91
8627;BME280;4351;51.422;6.794;2022-07-01T01:17:11;101482.81;;;15.45;53.93
8627;BME280;4351;51.422;6.794;2022-07-01T01:19:40;101468.31;;;15.45;55.53
8627;BME280;4351;51.422;6.794;2022-07-01T01:22:11;101459.31;;;15.18;57.51
8627;BME280;4351;51.422;6.794;2022-07-01T01:24:42;101469.44;;;15.29;57.34
8627;BME280;4351;51.422;6.794;2022-07-01T01:27:11;101473.41;;;15.23;58.80
8627;BME280;4351;51.422;6.794;2022-07-01T01:29:40;101487.75;;;15.12;59.40
8627;BME280;4351;51.422;6.794;2022-07-01T01:32:08;101506.16;;;15.22;58.78
8627;BME280;4351;51.422;6.794;2022-07-01T01:34:37;101509.75;;;15.22;58.40
8627;BME280;4351;51.422;6.794;2022-07-01T01:37:07;101529.53;;;15.24;57.50
8627;BME280;4351;51.422;6.794;2022-07-01T01:39:37;101551.28;;;15.24;56.92
8627;BME280;4351;51.422;6.794;2022-07-01T01:42:06;101560.19;;;15.26;56.21
8627;BME280;4351;51.422;6.794;2022-07-01T01:44:34;101561.38;;;15.22;55.69
8627;BME280;4351;51.422;6.794;2022-07-01T01:47:03;101581.94;;;15.26;54.93
8627;BME280;4351;51.422;6.794;2022-07-01T01:49:31;101587.72;;;15.35;53.52
8627;BME280;4351;51.422;6.794;2022-07-01T01:52:00;101601.91;;;15.25;53.10
8627;BME280;4351;51.422;6.794;2022-07-01T01:54:28;101623.25;;;15.32;52.13
8627;BME280;4351;51.422;6.794;2022-07-01T01:56:58;101625.66;;;15.36;51.23
8627;BME280;4351;51.422;6.794;2022-07-01T01:59:26;101635.41;;;15.26;51.25
8627;BME280;4351;51.422;6.794;2022-07-01T02:01:54;101611.06;;;15.24;51.94
8627;BME280;4351;51.422;6.794;2022-07-01T02:04:22;101583.06;;;15.37;52.79
8627;BME280;4351;51.422;6.794;2022-07-01T02:06:51;101571.06;;;15.26;53.85
8627;BME280;4351;51.422;6.794;2022-07-01T02:09:20;101560.75;;;15.45;53.80
8627;BME280;4351;51.422;6.794;2022-07-01T02:11:48;101553.22;;;15.22;55.63
8627;BME280;4351;51.422;6.794;2022-07-01T02:14:18;101536.91;;;15.22;57.70
8627;BME280;4351;51.422;6.794;2022-07-01T02:16:46;101517.91;;;15.22;58.99
8627;BME280;4351;51.422;6.794;2022-07-01T02:19:15;101514.94;;;15.25;60.50
8627;BME280;4351;51.422;6.794;2022-07-01T02:21:43;101514.94;;;15.25;61.65
8627;BME280;4351;51.422;6.794;2022-07-01T02:24:11;101513.66;;;15.18;62.75
8627;BME280;4351;51.422;6.794;2022-07-01T02:26:39;101532.94;;;15.00;64.77
8627;BME280;4351;51.422;6.794;2022-07-01T02:29:08;101523.56;;;14.91;65.80
8627;BME280;4351;51.422;6.794;2022-07-01T02:31:37;101542.97;;;15.13;64.45
8627;BME280;4351;51.422;6.794;2022-07-01T02:34:06;101545.75;;;14.98;65.40
8627;BME280;4351;51.422;6.794;2022-07-01T02:36:34;101547.06;;;15.05;65.04
8627;BME280;4351;51.422;6.794;2022-07-01T02:39:02;101535.78;;;15.12;65.57
8627;BME280;4351;51.422;6.794;2022-07-01T02:41:31;101546.66;;;15.12;66.05
8627;BME280;4351;51.422;6.794;2022-07-01T02:44:19;101549.75;;;15.20;66.64
8627;BME280;4351;51.422;6.794;2022-07-01T02:46:48;101549.41;;;15.25;66.96
8627;BME280;4351;51.422;6.794;2022-07-01T02:49:17;101551.28;;;15.24;67.60
8627;BME280;4351;51.422;6.794;2022-07-01T02:51:44;101548.56;;;15.24;67.40
8627;BME280;4351;51.422;6.794;2022-07-01T02:54:38;101549.41;;;15.25;67.29
8627;BME280;4351;51.422;6.794;2022-07-01T02:57:07;101562.03;;;15.26;67.68
8627;BME280;4351;51.422;6.794;2022-07-01T02:59:35;101566.47;;;15.27;68.41
8627;BME280;4351;51.422;6.794;2022-07-01T03:02:05;101565.16;;;15.20;68.90
8627;BME280;4351;51.422;6.794;2022-07-01T03:04:34;101581.06;;;15.26;67.59
8627;BME280;4351;51.422;6.794;2022-07-01T03:07:03;101575.34;;;15.16;70.17
8627;BME280;4351;51.422;6.794;2022-07-01T03:09:31;101577.34;;;15.27;70.53
8627;BME280;4351;51.422;6.794;2022-07-01T03:12:01;101566.66;;;15.11;71.94
8627;BME280;4351;51.422;6.794;2022-07-01T03:14:50;101576.91;;;15.20;70.54
8627;BME280;4351;51.422;6.794;2022-07-01T03:17:21;101585.78;;;15.09;71.67
8627;BME280;4351;51.422;6.794;2022-07-01T03:19:49;101587.75;;;15.07;72.32
8627;BME280;4351;51.422;6.794;2022-07-01T03:22:18;101595.22;;;15.03;71.96
8627;BME280;4351;51.422;6.794;2022-07-01T03:24:47;101597.50;;;15.10;72.00
8627;BME280;4351;51.422;6.794;2022-07-01T03:27:15;101591.81;;;15.27;70.28
8627;BME280;4351;51.422;6.794;2022-07-01T03:29:44;101599.09;;;15.27;68.84
8627;BME280;4351;51.422;6.794;2022-07-01T03:32:12;101616.59;;;15.23;67.80
8627;BME280;4351;51.422;6.794;2022-07-01T03:34:43;101635.84;;;15.20;65.38
8627;BME280;4351;51.422;6.794;2022-07-01T03:37:13;101672.88;;;15.35;60.97
8627;BME280;4351;51.422;6.794;2022-07-01T03:39:41;101694.56;;;15.22;58.67
8627;BME280;4351;51.422;6.794;2022-07-01T03:42:10;101716.66;;;15.16;56.65
8627;BME280;4351;51.422;6.794;2022-07-01T03:44:38;101731.44;;;15.26;54.32
8627;BME280;4351;51.422;6.794;2022-07-01T03:47:07;101744.72;;;15.31;52.84
8627;BME280;4351;51.422;6.794;2022-07-01T03:49:36;101744.81;;;15.29;52.37
8627;BME280;4351;51.422;6.794;2022-07-01T03:52:06;101731.06;;;15.18;52.62
8627;BME280;4351;51.422;6.794;2022-07-01T03:54:34;101733.28;;;15.26;52.08
8627;BME280;4351;51.422;6.794;2022-07-01T03:57:06;101731.13;;;15.31;51.79
8627;BME280;4351;51.422;6.794;2022-07-01T03:59:35;101729.13;;;15.20;52.25
8627;BME280;4351;51.422;6.794;2022-07-01T04:02:05;101727.06;;;15.24;51.46
8627;BME280;4351;51.422;6.794;2022-07-01T04:04:34;101730.44;;;15.27;51.64
8627;BME280;4351;51.422;6.794;2022-07-01T04:07:07;101744.31;;;15.23;51.25
8627;BME280;4351;51.422;6.794;2022-07-01T04:09:36;101755.09;;;15.39;49.90
8627;BME280;4351;51.422;6.794;2022-07-01T04:12:04;101764.19;;;15.38;49.46
8627;BME280;4351;51.422;6.794;2022-07-01T04:14:35;101777.91;;;15.36;49.11
8627;BME280;4351;51.422;6.794;2022-07-01T04:17:03;101765.22;;;15.22;49.09
8627;BME280;4351;51.422;6.794;2022-07-01T04:19:32;101775.88;;;15.40;48.37
8627;BME280;4351;51.422;6.794;2022-07-01T04:22:01;101754.13;;;15.25;48.85
8627;BME280;4351;51.422;6.794;2022-07-01T04:24:48;101757.81;;;15.39;48.34
8627;BME280;4351;51.422;6.794;2022-07-01T04:27:16;101756.84;;;15.25;48.80
8627;BME280;4351;51.422;6.794;2022-07-01T04:29:44;101750.53;;;15.25;48.99
8627;BME280;4351;51.422;6.794;2022-07-01T04:32:12;101745.50;;;15.33;49.60
8627;BME280;4351;51.422;6.794;2022-07-01T04:34:41;101721.88;;;15.34;50.03
8627;BME280;4351;51.422;6.794;2022-07-01T04:37:09;101709.16;;;15.34;51.18
8627;BME280;4351;51.422;6.794;2022-07-01T04:39:37;101695.25;;;15.11;53.08
8627;BME280;4351;51.422;6.794;2022-07-01T04:42:06;101691.44;;;15.14;53.05
8627;BME280;4351;51.422;6.794;2022-07-01T04:44:36;101680.44;;;15.30;53.56
8627;BME280;4351;51.422;6.794;2022-07-01T04:47:10;101663.06;;;15.33;55.47
8627;BME280;4351;51.422;6.794;2022-07-01T04:49:38;101647.31;;;15.38;57.72
8627;BME280;4351;51.422;6.794;2022-07-01T04:52:06;101619.16;;;15.39;61.27
8627;BME280;4351;51.422;6.794;2022-07-01T04:54:34;101590.44;;;15.35;63.54
8627;BME280;4351;51.422;6.794;2022-07-01T04:57:03;101592.28;;;15.34;66.93
8627;BME280;4351;51.422;6.794;2022-07-01T04:59:33;101560.22;;;15.39;73.36
8627;BME280;4351;51.422;6.794;2022-07-01T05:02:01;101528.63;;;15.11;79.52
8627;BME280;4351;51.422;6.794;2022-07-01T05:04:33;101520.94;;;15.17;81.53
8627;BME280;4351;51.422;6.794;2022-07-01T05:07:02;101537.81;;;15.36;81.68
8627;BME280;4351;51.422;6.794;2022-07-01T05:09:30;101534.25;;;15.35;87.32
8627;BME280;4351;51.422;6.794;2022-07-01T05:11:58;101520.84;;;15.32;91.92
8627;BME280;4351;51.422;6.794;2022-07-01T05:14:26;101504.84;;;15.27;96.44
8627;BME280;4351;51.422;6.794;2022-07-01T05:16:56;101507.13;;;15.34;98.82
8627;BME280;4351;51.422;6.794;2022-07-01T05:19:24;101502.25;;;15.26;100.00
8627;BME280;4351;51.422;6.794;2022-07-01T05:22:21;101505.41;;;15.33;100.00
8627;BME280;4351;51.422;6.794;2022-07-01T05:24:49;101489.72;;;15.23;100.00
8627;BME280;4351;51.422;6.794;2022-07-01T05:27:17;101491.47;;;15.24;100.00
8627;BME280;4351;51.422;6.794;2022-07-01T05:29:45;101507.56;;;15.27;100.00
8627;BME280;4351;51.422;6.794;2022-07-01T05:32:14;101487.78;;;15.25;100.00
8627;BME280;4351;51.422;6.794;2022-07-01T05:34:42;101489.09;;;15.33;100.00
8627;BME280;4351;51.422;6.794;2022-07-01T05:37:11;101474.31;;;15.37;100.00
8627;BME280;4351;51.422;6.794;2022-07-01T05:39:39;101470.41;;;15.41;100.00
8627;BME280;4351;51.422;6.794;2022-07-01T05:42:14;101466.91;;;15.26;100.00
8627;BME280;4351;51.422;6.794;2022-07-01T05:44:42;101462.22;;;15.15;100.00
8627;BME280;4351;51.422;6.794;2022-07-01T05:47:10;101454.28;;;15.25;100.00
8627;BME280;4351;51.422;6.794;2022-07-01T05:49:40;101451.16;;;15.44;100.00
8627;BME280;4351;51.422;6.794;2022-07-01T05:52:08;101449.28;;;15.19;100.00
8627;BME280;4351;51.422;6.794;2022-07-01T05:54:36;101457.84;;;15.12;100.00
8627;BME280;4351;51.422;6.794;2022-07-01T05:57:05;101459.50;;;15.15;100.00
8627;BME280;4351;51.422;6.794;2022-07-01T05:59:35;101464.16;;;15.13;100.00
8627;BME280;4351;51.422;6.794;2022-07-01T06:02:04;101483.38;;;15.10;100.00
8627;BME280;4351;51.422;6.794;2022-07-01T06:04:32;101470.38;;;15.28;100.00
8627;BME280;4351;51.422;6.794;2022-07-01T06:07:02;101471.91;;;15.19;100.00
8627;BME280;4351;51.422;6.794;2022-07-01T06:09:30;101468.13;;;15.35;100.00
8627;BME280;4351;51.422;6.794;2022-07-01T06:11:58;101486.72;;;15.41;100.00
8627;BME280;4351;51.422;6.794;2022-07-01T06:14:26;101494.53;;;15.33;100.00
8627;BME280;4351;51.422;6.794;2022-07-01T06:16:54;101505.19;;;15.36;100.00
8627;BME280;4351;51.422;6.794;2022-07-01T06:19:22;101517.19;;;15.46;100.00
8627;BME280;4351;51.422;6.794;2022-07-01T06:21:50;101497.91;;;15.49;100.00
8627;BME280;4351;51.422;6.794;2022-07-01T06:24:20;101504.69;;;15.57;100.00
8627;BME280;4351;51.422;6.794;2022-07-01T06:26:48;101508.25;;;15.44;100.00
8627;BME280;4351;51.422;6.794;2022-07-01T06:29:16;101498.78;;;15.50;100.00
8627;BME280;4351;51.422;6.794;2022-07-01T06:31:44;101488.25;;;15.58;100.00
8627;BME280;4351;51.422;6.794;2022-07-01T06:34:12;101488.69;;;15.65;100.00
8627;BME280;4351;51.422;6.794;2022-07-01T06:36:40;101483.25;;;15.65;100.00
8627;BME280;4351;51.422;6.794;2022-07-01T06:39:08;101470.22;;;15.70;100.00
8627;BME280;4351;51.422;6.794;2022-07-01T06:41:38;101464.78;;;15.57;100.00
8627;BME280;4351;51.422;6.794;2022-07-01T06:44:06;101451.94;;;15.72;100.00
8627;BME280;4351;51.422;6.794;2022-07-01T06:46:34;101451.25;;;15.69;100.00
8627;BME280;4351;51.422;6.794;2022-07-01T06:49:02;101432.56;;;15.77;100.00
8627;BME280;4351;51.422;6.794;2022-07-01T06:51:31;101427.88;;;15.79;100.00
8627;BME280;4351;51.422;6.794;2022-07-01T06:53:59;101424.91;;;15.82;100.00
8627;BME280;4351;51.422;6.794;2022-07-01T06:56:27;101413.72;;;15.87;100.00
8627;BME280;4351;51.422;6.794;2022-07-01T06:58:56;101427.84;;;15.92;100.00
8627;BME280;4351;51.422;6.794;2022-07-01T07:01:24;101416.44;;;15.87;100.00
8627;BME280;4351;51.422;6.794;2022-07-01T07:03:53;101416.09;;;15.92;100.00
8627;BME280;4351;51.422;6.794;2022-07-01T07:06:21;101427.63;;;15.95;100.00
8627;BME280;4351;51.422;6.794;2022-07-01T07:08:49;101406.44;;;15.88;100.00
8627;BME280;4351;51.422;6.794;2022-07-01T07:11:17;101384.44;;;15.78;100.00
8627;BME280;4351;51.422;6.794;2022-07-01T07:13:46;101365.94;;;15.83;100.00
8627;BME280;4351;51.422;6.794;2022-07-01T07:16:16;101356.13;;;15.93;100.00
8627;BME280;4351;51.422;6.794;2022-07-01T07:18:48;101324.13;;;15.97;100.00
8627;BME280;4351;51.422;6.794;2022-07-01T07:21:16;101321.63;;;15.94;100.00
8627;BME280;4351;51.422;6.794;2022-07-01T07:23:44;101328.56;;;15.98;100.00
8627;BME280;4351;51.422;6.794;2022-07-01T07:26:12;101328.75;;;15.83;100.00
8627;BME280;4351;51.422;6.794;2022-07-01T07:28:40;101320.84;;;16.05;100.00
8627;BME280;4351;51.422;6.794;2022-07-01T07:31:10;101315.97;;;15.97;100.00
8627;BME280;4351;51.422;6.794;2022-07-01T07:33:39;101303.66;;;16.04;100.00
8627;BME280;4351;51.422;6.794;2022-07-01T07:36:07;101303.00;;;16.01;100.00
8627;BME280;4351;51.422;6.794;2022-07-01T07:38:36;101300.59;;;16.09;100.00
8627;BME280;4351;51.422;6.794;2022-07-01T07:41:05;101296.25;;;16.06;100.00
8627;BME280;4351;51.422;6.794;2022-07-01T07:43:33;101296.94;;;16.22;100.00
8627;BME280;4351;51.422;6.794;2022-07-01T07:46:02;101299.09;;;16.05;100.00
8627;BME280;4351;51.422;6.794;2022-07-01T07:48:31;101293.09;;;16.24;100.00
8627;BME280;4351;51.422;6.794;2022-07-01T07:51:00;101301.97;;;16.39;100.00
8627;BME280;4351;51.422;6.794;2022-07-01T07:53:29;101321.06;;;16.51;100.00
8627;BME280;4351;51.422;6.794;2022-07-01T07:55:57;101325.50;;;16.40;100.00
8627;BME280;4351;51.422;6.794;2022-07-01T07:58:25;101319.38;;;16.37;100.00
8627;BME280;4351;51.422;6.794;2022-07-01T08:00:53;101319.22;;;16.27;100.00
8627;BME280;4351;51.422;6.794;2022-07-01T08:03:24;101319.28;;;16.14;100.00
8627;BME280;4351;51.422;6.794;2022-07-01T08:05:52;101325.56;;;16.27;100.00
8627;BME280;4351;51.422;6.794;2022-07-01T08:08:22;101325.97;;;16.34;100.00
8627;BME280;4351;51.422;6.794;2022-07-01T08:10:50;101324.00;;;16.36;100.00
8627;BME280;4351;51.422;6.794;2022-07-01T08:13:21;101324.47;;;16.41;100.00
8627;BME280;4351;51.422;6.794;2022-07-01T08:15:50;101328.97;;;16.42;100.00
8627;BME280;4351;51.422;6.794;2022-07-01T08:18:19;101327.25;;;16.53;100.00
8627;BME280;4351;51.422;6.794;2022-07-01T08:20:48;101345.03;;;16.46;100.00
8627;BME280;4351;51.422;6.794;2022-07-01T08:23:22;101345.56;;;16.51;100.00
8627;BME280;4351;51.422;6.794;2022-07-01T08:25:51;101349.00;;;16.41;100.00
8627;BME280;4351;51.422;6.794;2022-07-01T08:28:19;101355.25;;;16.55;100.00
8627;BME280;4351;51.422;6.794;2022-07-01T08:30:51;101348.91;;;16.54;100.00
8627;BME280;4351;51.422;6.794;2022-07-01T08:33:23;101357.88;;;16.32;100.00
8627;BME280;4351;51.422;6.794;2022-07-01T08:35:52;101362.53;;;16.54;100.00
8627;BME280;4351;51.422;6.794;2022-07-01T08:38:22;101363.34;;;16.43;100.00
8627;BME280;4351;51.422;6.794;2022-07-01T08:40:52;101369.53;;;16.34;100.00
8627;BME280;4351;51.422;6.794;2022-07-01T08:43:21;101361.84;;;16.39;100.00
8627;BME280;4351;51.422;6.794;2022-07-01T08:45:51;101362.09;;;16.36;100.00
8627;BME280;4351;51.422;6.794;2022-07-01T08:48:21;101355.72;;;16.49;100.00
8627;BME280;4351;51.422;6.794;2022-07-01T08:50:49;101357.81;;;16.45;100.00
8627;BME280;4351;51.422;6.794;2022-07-01T08:53:19;101377.28;;;16.52;100.00
8627;BME280;4351;51.422;6.794;2022-07-01T08:55:49;101391.59;;;16.42;100.00
8627;BME280;4351;51.422;6.794;2022-07-01T08:58:35;101390.50;;;16.57;100.00
8627;BME280;4351;51.422;6.794;2022-07-01T09:01:16;101402.56;;;16.65;100.00
8627;BME280;4351;51.422;6.794;2022-07-01T09:03:45;101390.09;;;16.74;100.00
8627;BME280;4351;51.422;6.794;2022-07-01T09:06:16;101385.31;;;16.78;100.00
8627;BME280;4351;51.422;6.794;2022-07-01T09:08:46;101387.53;;;16.84;100.00
8627;BME280;4351;51.422;6.794;2022-07-01T09:11:18;101392.06;;;17.08;100.00
8627;BME280;4351;51.422;6.794;2022-07-01T09:14:07;101391.25;;;17.19;100.00
8627;BME280;4351;51.422;6.794;2022-07-01T09:16:40;101396.50;;;17.09;100.00
8627;BME280;4351;51.422;6.794;2022-07-01T09:19:11;101388.16;;;17.24;100.00
8627;BME280;4351;51.422;6.794;2022-07-01T09:21:41;101400.06;;;17.34;100.00
8627;BME280;4351;51.422;6.794;2022-07-01T09:24:26;101382.47;;;17.27;100.00
8627;BME280;4351;51.422;6.794;2022-07-01T09:26:59;101388.78;;;17.28;100.00
8627;BME280;4351;51.422;6.794;2022-07-01T09:29:35;101390.13;;;17.33;100.00
8627;BME280;4351;51.422;6.794;2022-07-01T09:32:08;101388.53;;;17.42;100.00
8627;BME280;4351;51.422;6.794;2022-07-01T09:34:40;101407.03;;;17.62;100.00
8627;BME280;4351;51.422;6.794;2022-07-01T09:37:12;101406.78;;;17.65;100.00
8627;BME280;4351;51.422;6.794;2022-07-01T09:39:45;101413.25;;;17.52;100.00
8627;BME280;4351;51.422;6.794;2022-07-01T09:42:19;101412.84;;;17.68;100.00
8627;BME280;4351;51.422;6.794;2022-07-01T09:44:54;101408.88;;;17.73;100.00
8627;BME280;4351;51.422;6.794;2022-07-01T09:47:38;101410.75;;;17.61;100.00
8627;BME280;4351;51.422;6.794;2022-07-01T09:50:16;101414.72;;;17.56;100.00
8627;BME280;4351;51.422;6.794;2022-07-01T09:52:52;101407.66;;;17.54;100.00
8627;BME280;4351;51.422;6.794;2022-07-01T09:55:21;101403.56;;;17.71;100.00
8627;BME280;4351;51.422;6.794;2022-07-01T09:57:52;101406.16;;;17.84;100.00
8627;BME280;4351;51.422;6.794;2022-07-01T10:00:24;101415.72;;;17.90;100.00
8627;BME280;4351;51.422;6.794;2022-07-01T10:02:54;101427.47;;;18.13;100.00
8627;BME280;4351;51.422;6.794;2022-07-01T10:05:24;101422.88;;;18.14;100.00
8627;BME280;4351;51.422;6.794;2022-07-01T10:08:08;101423.41;;;18.08;100.00
8627;BME280;4351;51.422;6.794;2022-07-01T10:10:44;101432.81;;;18.03;100.00
8627;BME280;4351;51.422;6.794;2022-07-01T10:13:23;101431.59;;;18.08;100.00
8627;BME280;4351;51.422;6.794;2022-07-01T10:15:56;101426.88;;;18.10;100.00
8627;BME280;4351;51.422;6.794;2022-07-01T10:18:27;101436.63;;;18.12;100.00
8627;BME280;4351;51.422;6.794;2022-07-01T10:20:57;101438.63;;;18.10;100.00
8627;BME280;4351;51.422;6.794;2022-07-01T10:23:37;101439.28;;;18.14;100.00
8627;BME280;4351;51.422;6.794;2022-07-01T10:26:07;101434.91;;;18.11;100.00
8627;BME280;4351;51.422;6.794;2022-07-01T10:28:43;101441.00;;;18.38;100.00
8627;BME280;4351;51.422;6.794;2022-07-01T10:31:17;101453.03;;;18.35;100.00
8627;BME280;4351;51.422;6.794;2022-07-01T10:33:56;101449.44;;;18.23;100.00
8627;BME280;4351;51.422;6.794;2022-07-01T10:36:27;101447.94;;;18.31;100.00
8627;BME280;4351;51.422;6.794;2022-07-01T10:39:14;101462.19;;;18.34;100.00
8627;BME280;4351;51.422;6.794;2022-07-01T10:42:01;101454.19;;;18.66;100.00
8627;BME280;4351;51.422;6.794;2022-07-01T10:45:10;101461.81;;;18.50;100.00
8627;BME280;4351;51.422;6.794;2022-07-01T10:48:17;101451.31;;;18.23;100.00
8627;BME280;4351;51.422;6.794;2022-07-01T10:50:52;101443.44;;;18.53;100.00
8627;BME280;4351;51.422;6.794;2022-07-01T13:34:02;101445.31;;;20.93;100.00
8627;BME280;4351;51.422;6.794;2022-07-01T13:36:34;101444.31;;;20.74;100.00
8627;BME280;4351;51.422;6.794;2022-07-01T13:39:14;101439.97;;;20.72;100.00
8627;BME280;4351;51.422;6.794;2022-07-01T13:41:47;101453.06;;;20.58;100.00
8627;BME280;4351;51.422;6.794;2022-07-01T13:44:19;101449.78;;;20.84;100.00
8627;BME280;4351;51.422;6.794;2022-07-01T13:47:04;101450.97;;;21.01;100.00
8627;BME280;4351;51.422;6.794;2022-07-01T13:49:55;101444.47;;;21.12;100.00
8627;BME280;4351;51.422;6.794;2022-07-01T13:52:31;101440.28;;;21.08;100.00
8627;BME280;4351;51.422;6.794;2022-07-01T13:55:11;101451.25;;;20.98;100.00
8627;BME280;4351;51.422;6.794;2022-07-01T13:57:41;101443.44;;;21.23;100.00
8627;BME280;4351;51.422;6.794;2022-07-01T14:00:16;101447.47;;;21.29;100.00
8627;BME280;4351;51.422;6.794;2022-07-01T14:02:51;101460.81;;;21.62;100.00
8627;BME280;4351;51.422;6.794;2022-07-01T14:05:28;101460.94;;;21.70;100.00
8627;BME280;4351;51.422;6.794;2022-07-01T14:08:07;101470.31;;;21.78;100.00
8627;BME280;4351;51.422;6.794;2022-07-01T14:11:00;101468.78;;;21.65;100.00
8627;BME280;4351;51.422;6.794;2022-07-01T14:14:01;101472.75;;;21.23;100.00
8627;BME280;4351;51.422;6.794;2022-07-01T14:17:30;101478.41;;;21.01;100.00
8627;BME280;4351;51.422;6.794;2022-07-01T14:20:49;101483.13;;;20.89;100.00
8627;BME280;4351;51.422;6.794;2022-07-01T14:24:07;101481.09;;;20.82;100.00
8627;BME280;4351;51.422;6.794;2022-07-01T14:27:31;101486.28;;;20.75;100.00
8627;BME280;4351;51.422;6.794;2022-07-01T14:31:14;101488.59;;;20.60;100.00
8627;BME280;4351;51.422;6.794;2022-07-01T14:34:02;101488.03;;;20.86;100.00
8627;BME280;4351;51.422;6.794;2022-07-01T14:36:44;101488.63;;;20.79;100.00
8627;BME280;4351;51.422;6.794;2022-07-01T14:39:15;101489.03;;;20.85;100.00
8627;BME280;4351;51.422;6.794;2022-07-01T14:42:11;101491.91;;;20.73;100.00
8627;BME280;4351;51.422;6.794;2022-07-01T14:44:46;101501.13;;;20.62;100.00
8627;BME280;4351;51.422;6.794;2022-07-01T14:47:23;101487.41;;;20.52;100.00
8627;BME280;4351;51.422;6.794;2022-07-01T14:49:58;101488.72;;;20.58;100.00
8627;BME280;4351;51.422;6.794;2022-07-01T14:52:53;101484.13;;;20.78;100.00
8627;BME280;4351;51.422;6.794;2022-07-01T14:55:51;101482.22;;;20.69;100.00
8627;BME280;4351;51.422;6.794;2022-07-01T14:59:14;101484.75;;;21.12;100.00
8627;BME280;4351;51.422;6.794;2022-07-01T15:02:20;101478.41;;;21.21;100.00
8627;BME280;4351;51.422;6.794;2022-07-01T15:05:13;101479.53;;;21.29;100.00
8627;BME280;4351;51.422;6.794;2022-07-01T15:08:09;101480.41;;;21.19;100.00
8627;BME280;4351;51.422;6.794;2022-07-01T15:10:55;101493.53;;;21.35;100.00
8627;BME280;4351;51.422;6.794;2022-07-01T15:13:30;101488.91;;;21.26;100.00
8627;BME280;4351;51.422;6.794;2022-07-01T15:16:09;101495.56;;;21.23;100.00
8627;BME280;4351;51.422;6.794;2022-07-01T15:18:43;101493.97;;;21.21;100.00
8627;BME280;4351;51.422;6.794;2022-07-01T15:21:19;101501.78;;;21.25;100.00
8627;BME280;4351;51.422;6.794;2022-07-01T15:24:18;101492.66;;;21.15;100.00
8627;BME280;4351;51.422;6.794;2022-07-01T15:26:50;101488.16;;;21.54;100.00
8627;BME280;4351;51.422;6.794;2022-07-01T15:30:19;101498.41;;;21.52;100.00
8627;BME280;4351;51.422;6.794;2022-07-01T15:33:27;101490.50;;;21.29;100.00
8627;BME280;4351;51.422;6.794;2022-07-01T15:36:24;101494.25;;;21.47;100.00
8627;BME280;4351;51.422;6.794;2022-07-01T15:39:35;101497.25;;;21.44;100.00
8627;BME280;4351;51.422;6.794;2022-07-01T15:43:03;101502.88;;;21.63;100.00
8627;BME280;4351;51.422;6.794;2022-07-01T15:45:44;101495.97;;;21.39;100.00
8627;BME280;4351;51.422;6.794;2022-07-01T15:48:56;101497.50;;;21.61;100.00
8627;BME280;4351;51.422;6.794;2022-07-01T15:52:01;101501.66;;;21.75;100.00
8627;BME280;4351;51.422;6.794;2022-07-01T15:54:38;101497.50;;;21.61;100.00
8627;BME280;4351;51.422;6.794;2022-07-01T16:00:24;101494.25;;;21.47;100.00
8627;BME280;4351;51.422;6.794;2022-07-01T16:03:02;101500.88;;;21.35;100.00
8627;BME280;4351;51.422;6.794;2022-07-01T16:05:36;101501.19;;;21.32;100.00
8627;BME280;4351;51.422;6.794;2022-07-01T16:08:18;101502.75;;;21.44;100.00
8627;BME280;4351;51.422;6.794;2022-07-01T16:11:16;101505.22;;;21.47;100.00
8627;BME280;4351;51.422;6.794;2022-07-01T16:14:01;101497.09;;;21.46;100.00
8627;BME280;4351;51.422;6.794;2022-07-01T16:16:43;101509.94;;;21.55;100.00
8627;BME280;4351;51.422;6.794;2022-07-01T16:20:04;101503.19;;;21.50;100.00
8627;BME280;4351;51.422;6.794;2022-07-01T16:23:20;101506.53;;;21.43;100.00
8627;BME280;4351;51.422;6.794;2022-07-01T16:25:52;101508.97;;;21.27;100.00
8627;BME280;4351;51.422;6.794;2022-07-01T16:28:39;101503.50;;;21.36;100.00